Time;durP1;ratioP1;P1;durP2;ratioP2;P2;SDS_P1;SDS_P2;PMS_P1;PMS_P2;Temp;Humidity;BMP_temperature;BMP_pressure;BME280_temperature;BME280_humidity;BME280_pressure;Samples;Min_cycle;Max_cycle;Signal;HPM_P1;HPM_P2
2023/01/22 00:01:58;;;;;;;16.50;10.67;;;;;;;;;;5074309;28;20479;-82
2023/01/22 00:04:24;;;;;;;25.73;13.87;;;;;;;;;;5073681;28;20470;-82
2023/01/22 00:06:50;;;;;;;16.20;10.67;;;;;;;;;;5074884;28;20469;-82
2023/01/22 00:09:17;;;;;;;20.10;12.30;;;;;;;;;;5073953;28;20480;-82
2023/01/22 00:11:44;;;;;;;16.13;11.63;;;;;;;;;;5072476;28;20513;-82
2023/01/22 00:14:12;;;;;;;20.23;12.13;;;;;;;;;;5073336;28;20490;-82
2023/01/22 00:16:40;;;;;;;17.60;12.07;;;;;;;;;;5070530;28;20482;-82
2023/01/22 00:19:06;;;;;;;18.80;10.90;;;;;;;;;;5069688;28;20868;-82
2023/01/22 00:21:33;;;;;;;16.20;11.30;;;;;;;;;;5073583;28;20482;-82
2023/01/22 00:23:59;;;;;;;19.77;11.17;;;;;;;;;;5071211;28;20484;-82
2023/01/22 00:26:25;;;;;;;17.70;10.37;;;;;;;;;;5073151;28;20986;-82
2023/01/22 00:28:52;;;;;;;16.00;10.23;;;;;;;;;;5072848;28;20819;-81
2023/01/22 00:31:20;;;;;;;15.30;10.60;;;;;;;;;;5069173;28;20474;-82
2023/01/22 00:33:47;;;;;;;16.80;9.80;;;;;;;;;;5070584;28;20464;-82
2023/01/22 00:36:15;;;;;;;15.17;10.17;;;;;;;;;;5070617;28;20455;-82
2023/01/22 00:38:41;;;;;;;20.10;9.17;;;;;;;;;;5072763;28;20470;-82
2023/01/22 00:41:08;;;;;;;13.33;10.17;;;;;;;;;;5071777;28;20593;-82
2023/01/22 00:43:37;;;;;;;13.33;9.80;;;;;;;;;;5073469;28;20467;-82
2023/01/22 00:46:03;;;;;;;13.33;8.73;;;;;;;;;;5073254;28;20462;-81
2023/01/22 00:48:31;;;;;;;16.03;9.60;;;;;;;;;;5071865;28;20466;-82
2023/01/22 00:50:57;;;;;;;15.53;9.30;;;;;;;;;;5072424;28;20580;-82
2023/01/22 00:53:24;;;;;;;11.10;8.50;;;;;;;;;;5072442;28;20483;-82
2023/01/22 00:55:51;;;;;;;14.87;8.77;;;;;;;;;;5071631;28;20461;-82
2023/01/22 00:58:17;;;;;;;16.57;9.90;;;;;;;;;;5071623;28;20883;-82
2023/01/22 01:00:44;;;;;;;11.43;7.97;;;;;;;;;;5072502;28;20467;-83
2023/01/22 01:03:30;;;;;;;12.27;9.20;;;;;;;;;;5073722;28;20448;-82
2023/01/22 01:05:59;;;;;;;12.73;7.83;;;;;;;;;;5070715;28;20463;-82
2023/01/22 01:08:26;;;;;;;13.63;9.73;;;;;;;;;;5073328;28;21011;-81
2023/01/22 01:10:55;;;;;;;13.50;8.00;;;;;;;;;;5073027;28;20545;-82
2023/01/22 01:13:22;;;;;;;15.50;8.83;;;;;;;;;;5072633;28;20486;-82
2023/01/22 01:15:48;;;;;;;11.90;7.47;;;;;;;;;;5072703;28;20538;-82
2023/01/22 01:18:14;;;;;;;11.80;7.83;;;;;;;;;;5072680;28;20451;-82
2023/01/22 01:20:41;;;;;;;13.67;8.00;;;;;;;;;;5072354;28;20455;-82
2023/01/22 01:23:08;;;;;;;9.13;7.87;;;;;;;;;;5073127;28;20455;-82
2023/01/22 01:25:35;;;;;;;12.37;7.70;;;;;;;;;;5073000;28;20451;-82
2023/01/22 01:28:01;;;;;;;16.33;8.73;;;;;;;;;;5071668;28;20471;-82
2023/01/22 01:30:27;;;;;;;13.57;7.93;;;;;;;;;;5076416;28;20486;-82
2023/01/22 01:32:54;;;;;;;10.47;7.23;;;;;;;;;;5077473;28;20487;-83
2023/01/22 01:35:20;;;;;;;11.50;8.00;;;;;;;;;;5076959;28;20462;-82
2023/01/22 01:37:46;;;;;;;11.37;9.10;;;;;;;;;;5074398;28;20451;-82
2023/01/22 01:40:14;;;;;;;9.30;7.30;;;;;;;;;;5078569;28;20474;-82
2023/01/22 01:42:42;;;;;;;9.30;7.27;;;;;;;;;;5076772;28;20473;-82
2023/01/22 01:45:22;;;;;;;8.70;6.47;;;;;;;;;;5077909;28;20473;-82
2023/01/22 01:47:50;;;;;;;9.13;6.37;;;;;;;;;;5075909;28;20457;-81
2023/01/22 01:50:17;;;;;;;11.80;6.30;;;;;;;;;;5076474;28;20468;-82
2023/01/22 01:52:43;;;;;;;9.40;6.70;;;;;;;;;;5075987;28;20484;-82
2023/01/22 01:55:10;;;;;;;9.30;6.00;;;;;;;;;;5072632;28;20505;-82
2023/01/22 01:57:38;;;;;;;11.77;7.30;;;;;;;;;;5076731;28;20841;-82
2023/01/22 02:00:09;;;;;;;9.40;7.23;;;;;;;;;;5076555;28;20466;-82
2023/01/22 02:02:35;;;;;;;7.77;6.97;;;;;;;;;;5078428;28;20477;-81
2023/01/22 02:05:02;;;;;;;16.07;6.93;;;;;;;;;;5075299;28;20815;-82
2023/01/22 02:07:28;;;;;;;9.77;7.33;;;;;;;;;;5077217;28;20428;-82
2023/01/22 02:09:54;;;;;;;6.30;5.70;;;;;;;;;;5075013;28;20476;-82
2023/01/22 02:12:21;;;;;;;7.80;7.00;;;;;;;;;;5071911;28;21010;-82
2023/01/22 02:14:49;;;;;;;10.90;6.00;;;;;;;;;;5075140;28;20475;-82
2023/01/22 02:17:18;;;;;;;13.43;6.87;;;;;;;;;;5077051;28;20451;-82
2023/01/22 02:19:44;;;;;;;8.70;6.00;;;;;;;;;;5076125;28;20557;-81
2023/01/22 02:22:13;;;;;;;11.40;7.27;;;;;;;;;;5076693;28;20470;-82
2023/01/22 02:24:39;;;;;;;9.13;6.80;;;;;;;;;;5074050;28;20759;-82
2023/01/22 02:27:05;;;;;;;8.50;6.70;;;;;;;;;;5074341;28;20463;-82
2023/01/22 02:29:32;;;;;;;9.50;6.80;;;;;;;;;;5074627;28;20475;-82
2023/01/22 02:31:58;;;;;;;7.50;6.23;;;;;;;;;;5075992;28;20873;-82
2023/01/22 02:34:24;;;;;;;8.23;6.17;;;;;;;;;;5074961;28;20481;-82
2023/01/22 02:36:51;;;;;;;8.60;5.23;;;;;;;;;;5076312;28;20458;-82
2023/01/22 02:39:19;;;;;;;7.70;5.93;;;;;;;;;;5075767;28;20478;-82
2023/01/22 02:41:45;;;;;;;9.40;6.23;;;;;;;;;;5074067;28;20494;-82
2023/01/22 02:44:11;;;;;;;9.23;5.63;;;;;;;;;;5073081;28;20471;-82
2023/01/22 02:46:38;;;;;;;8.77;6.97;;;;;;;;;;5075086;28;20444;-82
2023/01/22 02:49:05;;;;;;;5.77;4.83;;;;;;;;;;5074907;28;20470;-82
2023/01/22 02:51:31;;;;;;;9.00;6.63;;;;;;;;;;5073916;28;20477;-83
2023/01/22 02:53:58;;;;;;;7.50;6.13;;;;;;;;;;5073526;28;20475;-82
2023/01/22 02:56:26;;;;;;;6.10;5.47;;;;;;;;;;5073839;28;20451;-82
2023/01/22 02:58:52;;;;;;;12.10;6.93;;;;;;;;;;5072961;28;20469;-83
2023/01/22 03:01:20;;;;;;;7.93;5.97;;;;;;;;;;5074929;28;20474;-82
2023/01/22 03:03:46;;;;;;;7.63;5.87;;;;;;;;;;5076509;28;20471;-82
2023/01/22 03:06:14;;;;;;;7.60;6.10;;;;;;;;;;5076792;28;20463;-82
2023/01/22 03:08:40;;;;;;;7.50;6.37;;;;;;;;;;5076566;28;20464;-82
2023/01/22 03:11:07;;;;;;;8.90;6.60;;;;;;;;;;5076140;28;20505;-82
2023/01/22 03:21:46;;;;;;;9.83;7.60;;;;;;;;;;5074727;28;20442;-82
2023/01/22 03:24:13;;;;;;;10.53;8.00;;;;;;;;;;5075061;28;20463;-82
2023/01/22 03:26:39;;;;;;;11.50;8.20;;;;;;;;;;5075432;28;20470;-82
2023/01/22 03:29:06;;;;;;;11.07;8.00;;;;;;;;;;5074609;28;20831;-82
2023/01/22 03:31:33;;;;;;;12.40;7.87;;;;;;;;;;5073783;28;20975;-82
2023/01/22 03:33:59;;;;;;;9.97;7.30;;;;;;;;;;5073170;28;20477;-82
2023/01/22 03:36:25;;;;;;;11.00;7.50;;;;;;;;;;5075386;28;20451;-82
2023/01/22 03:38:52;;;;;;;9.20;8.30;;;;;;;;;;5076135;28;20943;-82
2023/01/22 03:41:18;;;;;;;12.83;8.60;;;;;;;;;;5076645;28;20463;-82
2023/01/22 03:43:45;;;;;;;9.80;7.13;;;;;;;;;;5074687;28;20477;-82
2023/01/22 03:46:14;;;;;;;10.70;7.90;;;;;;;;;;5073141;28;20473;-82
2023/01/22 03:48:41;;;;;;;10.77;8.20;;;;;;;;;;5074818;28;21023;-81
2023/01/22 03:51:08;;;;;;;15.23;8.40;;;;;;;;;;5074493;28;20475;-82
2023/01/22 03:53:34;;;;;;;9.43;8.00;;;;;;;;;;5073435;28;20455;-82
2023/01/22 03:56:02;;;;;;;10.10;8.23;;;;;;;;;;5074005;28;20462;-84
2023/01/22 03:58:28;;;;;;;10.83;8.87;;;;;;;;;;5073664;28;20459;-81
2023/01/22 04:00:56;;;;;;;10.43;8.30;;;;;;;;;;5073926;28;20475;-82
2023/01/22 04:03:25;;;;;;;9.30;7.90;;;;;;;;;;5072741;28;20448;-82
2023/01/22 04:05:51;;;;;;;9.63;8.20;;;;;;;;;;5071473;28;20459;-82
2023/01/22 04:08:18;;;;;;;11.30;9.10;;;;;;;;;;5072044;28;20461;-82
2023/01/22 04:10:44;;;;;;;12.40;8.50;;;;;;;;;;5071347;28;20492;-85
2023/01/22 04:13:11;;;;;;;8.33;7.53;;;;;;;;;;5071257;28;20483;-82
2023/01/22 04:15:37;;;;;;;12.77;9.37;;;;;;;;;;5074457;28;20459;-83
2023/01/22 04:18:03;;;;;;;9.37;8.40;;;;;;;;;;5073814;28;20481;-82
2023/01/22 04:20:31;;;;;;;9.70;8.40;;;;;;;;;;5072505;28;20471;-82
2023/01/22 04:22:57;;;;;;;10.93;8.07;;;;;;;;;;5071868;28;20486;-82
2023/01/22 04:25:24;;;;;;;11.13;7.67;;;;;;;;;;5072383;28;20485;-82
2023/01/22 04:27:51;;;;;;;8.50;7.40;;;;;;;;;;5074675;28;20440;-82
2023/01/22 04:30:18;;;;;;;10.50;7.93;;;;;;;;;;5073620;28;20485;-82
2023/01/22 04:32:44;;;;;;;9.60;8.60;;;;;;;;;;5074337;28;20487;-84
2023/01/22 04:35:11;;;;;;;11.83;9.20;;;;;;;;;;5073481;28;20480;-83
2023/01/22 04:37:38;;;;;;;10.50;8.10;;;;;;;;;;5072599;28;21021;-82
2023/01/22 04:40:05;;;;;;;8.97;8.00;;;;;;;;;;5073625;28;21098;-82
2023/01/22 04:42:32;;;;;;;11.17;8.70;;;;;;;;;;5073542;28;20480;-82
2023/01/22 04:44:58;;;;;;;9.80;7.93;;;;;;;;;;5072980;28;20479;-82
2023/01/22 04:47:24;;;;;;;10.90;8.10;;;;;;;;;;5073699;28;20455;-82
2023/01/22 04:49:51;;;;;;;12.27;8.80;;;;;;;;;;5071061;28;20467;-82
2023/01/22 04:52:17;;;;;;;10.30;8.13;;;;;;;;;;5072387;28;20478;-82
2023/01/22 04:54:45;;;;;;;8.57;7.27;;;;;;;;;;5072476;28;20485;-82
2023/01/22 04:57:11;;;;;;;11.17;8.47;;;;;;;;;;5072935;28;20458;-82
2023/01/22 04:59:38;;;;;;;10.03;8.57;;;;;;;;;;5073826;28;20482;-82
2023/01/22 05:02:05;;;;;;;11.63;8.27;;;;;;;;;;5072953;28;20483;-82
2023/01/22 05:04:31;;;;;;;11.53;9.07;;;;;;;;;;5072656;28;21021;-82
2023/01/22 05:06:57;;;;;;;9.00;8.10;;;;;;;;;;5073935;28;20463;-82
2023/01/22 05:09:24;;;;;;;11.80;8.80;;;;;;;;;;5073470;28;20462;-82
2023/01/22 05:11:52;;;;;;;13.43;9.50;;;;;;;;;;5070850;28;20496;-82
2023/01/22 05:14:18;;;;;;;8.30;7.43;;;;;;;;;;5072474;28;20474;-82
2023/01/22 05:16:45;;;;;;;10.70;8.83;;;;;;;;;;5073791;28;20478;-83
2023/01/22 05:19:12;;;;;;;9.47;8.37;;;;;;;;;;5071584;28;20534;-82
2023/01/22 05:21:38;;;;;;;9.60;7.50;;;;;;;;;;5072034;28;20488;-82
2023/01/22 05:24:05;;;;;;;10.83;7.67;;;;;;;;;;5073574;28;20467;-82
2023/01/22 05:26:32;;;;;;;11.73;8.13;;;;;;;;;;5072503;28;20447;-83
2023/01/22 05:29:00;;;;;;;10.67;8.13;;;;;;;;;;5072723;28;20471;-83
2023/01/22 05:31:26;;;;;;;10.33;7.90;;;;;;;;;;5071300;28;20487;-82
2023/01/22 05:33:52;;;;;;;9.73;7.40;;;;;;;;;;5071866;28;20473;-82
2023/01/22 05:36:19;;;;;;;10.07;8.60;;;;;;;;;;5073641;28;20809;-82
2023/01/22 05:38:45;;;;;;;12.63;8.33;;;;;;;;;;5072339;28;20471;-82
2023/01/22 05:41:12;;;;;;;12.80;8.37;;;;;;;;;;5070596;28;20468;-82
2023/01/22 05:43:38;;;;;;;11.83;7.97;;;;;;;;;;5072306;28;20459;-82
2023/01/22 05:46:06;;;;;;;10.93;8.43;;;;;;;;;;5071353;28;20828;-82
2023/01/22 05:48:34;;;;;;;11.43;8.40;;;;;;;;;;5071032;28;20455;-82
2023/01/22 05:51:02;;;;;;;9.37;7.30;;;;;;;;;;5073222;28;20467;-82
2023/01/22 05:53:28;;;;;;;9.77;6.90;;;;;;;;;;5071455;28;20490;-82
2023/01/22 05:55:55;;;;;;;9.50;7.53;;;;;;;;;;5071551;28;20478;-82
2023/01/22 05:58:22;;;;;;;9.20;7.40;;;;;;;;;;5072278;28;20451;-82
2023/01/22 06:00:51;;;;;;;9.20;8.13;;;;;;;;;;5071442;28;20461;-82
2023/01/22 06:03:19;;;;;;;7.87;6.83;;;;;;;;;;5070921;28;20460;-81
2023/01/22 06:05:45;;;;;;;9.77;8.70;;;;;;;;;;5073092;28;20443;-82
2023/01/22 06:08:13;;;;;;;12.03;7.83;;;;;;;;;;5071715;28;20469;-82
2023/01/22 06:10:40;;;;;;;10.90;8.50;;;;;;;;;;5071827;28;20459;-81
2023/01/22 06:13:06;;;;;;;21.23;10.17;;;;;;;;;;5072058;28;20463;-82
2023/01/22 06:15:33;;;;;;;13.90;8.67;;;;;;;;;;5073309;28;20840;-81
2023/01/22 06:18:00;;;;;;;11.57;8.90;;;;;;;;;;5077042;28;20442;-82
2023/01/22 06:20:27;;;;;;;9.63;7.00;;;;;;;;;;5073472;28;20533;-82
2023/01/22 06:22:54;;;;;;;10.77;7.67;;;;;;;;;;5075840;28;20475;-82
2023/01/22 06:25:20;;;;;;;13.00;8.80;;;;;;;;;;5075334;28;20467;-82
2023/01/22 06:27:46;;;;;;;8.67;7.70;;;;;;;;;;5075190;28;20443;-81
2023/01/22 06:30:13;;;;;;;10.23;8.47;;;;;;;;;;5074150;28;21048;-82
2023/01/22 06:32:39;;;;;;;11.60;8.17;;;;;;;;;;5074465;28;20479;-82
2023/01/22 06:35:06;;;;;;;10.40;7.30;;;;;;;;;;5070773;28;20475;-82
2023/01/22 06:37:33;;;;;;;10.40;7.80;;;;;;;;;;5073086;28;20463;-84
2023/01/22 06:40:00;;;;;;;13.10;8.93;;;;;;;;;;5076358;28;20467;-82
2023/01/22 06:42:26;;;;;;;11.27;7.60;;;;;;;;;;5073600;28;20523;-82
2023/01/22 06:44:54;;;;;;;10.47;6.90;;;;;;;;;;5074087;28;20463;-82
2023/01/22 06:47:20;;;;;;;11.70;8.17;;;;;;;;;;5074042;28;20471;-82
2023/01/22 06:49:47;;;;;;;10.57;7.30;;;;;;;;;;5074134;28;20475;-82
2023/01/22 06:52:13;;;;;;;10.23;8.40;;;;;;;;;;5076208;28;20532;-82
2023/01/22 06:54:41;;;;;;;12.80;8.50;;;;;;;;;;5074463;28;20855;-81
2023/01/22 06:57:07;;;;;;;10.27;8.20;;;;;;;;;;5076812;28;20439;-82
2023/01/22 06:59:34;;;;;;;12.47;8.13;;;;;;;;;;5073956;28;21024;-82
2023/01/22 07:02:00;;;;;;;9.67;7.67;;;;;;;;;;5076090;28;20490;-82
2023/01/22 07:04:27;;;;;;;9.03;7.20;;;;;;;;;;5075597;28;20891;-82
2023/01/22 07:06:53;;;;;;;12.50;7.83;;;;;;;;;;5074353;28;21324;-84
2023/01/22 07:09:19;;;;;;;9.03;8.03;;;;;;;;;;5077388;28;20490;-83
2023/01/22 07:11:47;;;;;;;11.07;7.57;;;;;;;;;;5074850;28;20474;-82
2023/01/22 07:14:13;;;;;;;9.53;8.27;;;;;;;;;;5073986;28;20482;-82
2023/01/22 07:16:40;;;;;;;11.30;7.30;;;;;;;;;;5072958;28;20453;-82
2023/01/22 07:19:06;;;;;;;8.43;7.47;;;;;;;;;;5073223;28;20463;-82
2023/01/22 07:21:33;;;;;;;12.43;8.70;;;;;;;;;;5073783;28;20490;-83
2023/01/22 07:23:59;;;;;;;8.60;7.50;;;;;;;;;;5074649;28;20463;-82
2023/01/22 07:26:25;;;;;;;10.17;7.20;;;;;;;;;;5073731;28;21050;-82
2023/01/22 07:28:53;;;;;;;10.77;7.43;;;;;;;;;;5072740;28;20474;-82
2023/01/22 07:31:19;;;;;;;11.23;9.20;;;;;;;;;;5074781;28;20471;-82
2023/01/22 07:33:46;;;;;;;9.73;7.20;;;;;;;;;;5071641;28;20479;-82
2023/01/22 07:36:12;;;;;;;9.73;7.03;;;;;;;;;;5074204;28;20439;-82
2023/01/22 07:38:38;;;;;;;9.80;6.90;;;;;;;;;;5074256;28;20478;-82
2023/01/22 07:41:06;;;;;;;7.40;6.43;;;;;;;;;;5076369;28;20475;-82
2023/01/22 07:43:32;;;;;;;10.70;8.10;;;;;;;;;;5074580;28;20472;-82
2023/01/22 07:46:02;;;;;;;13.43;7.83;;;;;;;;;;5073494;28;20459;-82
2023/01/22 07:48:28;;;;;;;10.80;8.27;;;;;;;;;;5071680;28;20447;-82
2023/01/22 07:50:54;;;;;;;10.90;7.10;;;;;;;;;;5073554;28;20447;-82
2023/01/22 07:53:21;;;;;;;10.27;7.87;;;;;;;;;;5071100;28;20463;-83
2023/01/22 07:55:47;;;;;;;8.80;7.17;;;;;;;;;;5068160;28;20494;-82
2023/01/22 07:58:13;;;;;;;8.63;7.20;;;;;;;;;;5072455;28;20457;-82
2023/01/22 08:00:40;;;;;;;9.80;7.17;;;;;;;;;;5075062;28;20448;-82
2023/01/22 08:03:09;;;;;;;11.53;6.10;;;;;;;;;;5070628;28;20455;-82
2023/01/22 08:05:35;;;;;;;10.40;7.37;;;;;;;;;;5073439;28;20600;-82
2023/01/22 08:08:02;;;;;;;9.57;7.77;;;;;;;;;;5071818;28;20462;-82
2023/01/22 08:10:28;;;;;;;14.40;7.60;;;;;;;;;;5071538;28;20470;-82
2023/01/22 08:12:54;;;;;;;9.90;7.77;;;;;;;;;;5072309;28;20482;-82
2023/01/22 08:15:21;;;;;;;9.73;8.60;;;;;;;;;;5071617;28;20490;-82
2023/01/22 08:17:48;;;;;;;9.60;8.60;;;;;;;;;;5073024;28;20452;-82
2023/01/22 08:20:16;;;;;;;12.90;8.87;;;;;;;;;;5073330;28;20476;-82
2023/01/22 08:22:42;;;;;;;11.67;8.20;;;;;;;;;;5069988;28;20478;-83
2023/01/22 08:25:10;;;;;;;11.77;8.97;;;;;;;;;;5071614;28;20472;-83
2023/01/22 08:27:36;;;;;;;14.80;8.87;;;;;;;;;;5070863;28;20454;-83
2023/01/22 08:30:03;;;;;;;13.77;8.07;;;;;;;;;;5070139;28;20482;-83
2023/01/22 08:32:29;;;;;;;10.83;8.57;;;;;;;;;;5072390;28;20865;-83
2023/01/22 08:34:55;;;;;;;13.30;8.27;;;;;;;;;;5070656;28;20483;-84
2023/01/22 08:37:23;;;;;;;12.63;8.97;;;;;;;;;;5071115;28;20470;-83
2023/01/22 08:39:50;;;;;;;11.00;7.73;;;;;;;;;;5073325;28;20472;-82
2023/01/22 08:42:16;;;;;;;10.30;7.47;;;;;;;;;;5067919;28;20474;-84
2023/01/22 08:44:44;;;;;;;10.00;7.77;;;;;;;;;;5072450;28;20479;-83
2023/01/22 08:47:10;;;;;;;10.07;7.30;;;;;;;;;;5071235;28;20469;-83
2023/01/22 08:49:37;;;;;;;9.50;7.73;;;;;;;;;;5072753;28;20475;-83
2023/01/22 08:52:03;;;;;;;10.17;7.50;;;;;;;;;;5071916;28;20860;-84
2023/01/22 08:54:31;;;;;;;9.80;6.60;;;;;;;;;;5072076;28;20475;-83
2023/01/22 08:56:57;;;;;;;14.40;7.30;;;;;;;;;;5070955;28;21014;-83
2023/01/22 08:59:23;;;;;;;11.77;7.27;;;;;;;;;;5071344;28;20478;-83
2023/01/22 09:01:50;;;;;;;13.03;8.30;;;;;;;;;;5070428;28;20479;-84
2023/01/22 09:04:18;;;;;;;13.63;7.27;;;;;;;;;;5070424;28;20810;-83
2023/01/22 09:06:44;;;;;;;11.30;7.33;;;;;;;;;;5070703;28;21309;-83
2023/01/22 09:09:11;;;;;;;11.83;8.30;;;;;;;;;;5069202;28;20481;-83
2023/01/22 09:11:39;;;;;;;16.37;6.97;;;;;;;;;;5071000;28;20486;-83
2023/01/22 09:14:07;;;;;;;9.23;7.30;;;;;;;;;;5072478;28;20531;-84
2023/01/22 09:16:33;;;;;;;10.60;7.03;;;;;;;;;;5072092;28;20459;-83
2023/01/22 09:19:00;;;;;;;7.77;6.03;;;;;;;;;;5072120;28;20482;-83
2023/01/22 09:21:26;;;;;;;13.33;7.50;;;;;;;;;;5072278;28;20475;-83
2023/01/22 09:23:53;;;;;;;8.80;7.57;;;;;;;;;;5072867;28;20468;-83
2023/01/22 09:26:19;;;;;;;10.20;7.40;;;;;;;;;;5071595;28;20460;-83
2023/01/22 09:28:47;;;;;;;10.33;7.20;;;;;;;;;;5071038;28;20490;-83
2023/01/22 09:31:14;;;;;;;10.20;7.03;;;;;;;;;;5071654;28;21007;-83
2023/01/22 09:33:40;;;;;;;15.10;8.20;;;;;;;;;;5073040;28;20477;-83
2023/01/22 09:36:08;;;;;;;16.90;8.20;;;;;;;;;;5073045;28;20476;-83
2023/01/22 09:38:35;;;;;;;10.30;7.90;;;;;;;;;;5072598;28;20478;-83
2023/01/22 09:41:04;;;;;;;12.73;7.60;;;;;;;;;;5070268;28;20487;-83
2023/01/22 09:43:33;;;;;;;15.03;8.07;;;;;;;;;;5072909;28;20451;-83
2023/01/22 09:46:02;;;;;;;15.90;8.37;;;;;;;;;;5070977;28;20833;-83
2023/01/22 09:48:33;;;;;;;12.50;8.23;;;;;;;;;;5070255;28;20451;-83
2023/01/22 09:51:00;;;;;;;12.73;7.50;;;;;;;;;;5075664;28;20509;-84
2023/01/22 09:53:26;;;;;;;10.77;7.60;;;;;;;;;;5077002;28;20452;-83
2023/01/22 09:55:54;;;;;;;9.60;6.53;;;;;;;;;;5077032;28;20860;-83
2023/01/22 09:58:21;;;;;;;14.53;7.37;;;;;;;;;;5075248;28;20895;-83
2023/01/22 10:00:49;;;;;;;12.93;7.80;;;;;;;;;;5075862;28;20467;-83
2023/01/22 10:03:20;;;;;;;15.33;7.77;;;;;;;;;;5076762;28;20463;-83
2023/01/22 10:05:48;;;;;;;11.10;7.20;;;;;;;;;;5076183;28;20466;-83
2023/01/22 10:08:17;;;;;;;12.83;6.60;;;;;;;;;;5074774;28;20459;-83
2023/01/22 10:10:43;;;;;;;9.90;6.67;;;;;;;;;;5075093;28;20445;-83
2023/01/22 10:13:12;;;;;;;10.63;7.90;;;;;;;;;;5076145;28;20451;-83
2023/01/22 10:15:39;;;;;;;13.10;7.33;;;;;;;;;;5076259;28;20481;-87
2023/01/22 10:18:12;;;;;;;8.40;6.50;;;;;;;;;;5076798;28;20470;-83
2023/01/22 10:20:40;;;;;;;17.13;7.77;;;;;;;;;;5074878;28;20479;-83
2023/01/22 10:23:15;;;;;;;11.27;7.80;;;;;;;;;;5076074;28;20459;-83
2023/01/22 10:25:42;;;;;;;14.40;8.13;;;;;;;;;;5075801;28;20461;-83
2023/01/22 10:28:09;;;;;;;12.00;8.00;;;;;;;;;;5075954;28;20479;-83
2023/01/22 10:30:44;;;;;;;19.83;7.80;;;;;;;;;;5075304;28;20474;-83
2023/01/22 10:33:16;;;;;;;10.40;7.33;;;;;;;;;;5071642;28;20469;-84
2023/01/22 10:35:46;;;;;;;14.30;8.93;;;;;;;;;;5076565;28;20537;-84
2023/01/22 10:38:21;;;;;;;11.37;7.53;;;;;;;;;;5073795;28;20451;-84
2023/01/22 10:40:52;;;;;;;10.17;7.60;;;;;;;;;;5075711;28;20458;-84
2023/01/22 10:43:18;;;;;;;11.40;7.20;;;;;;;;;;5075441;28;20454;-83
2023/01/22 10:45:50;;;;;;;12.37;8.13;;;;;;;;;;5075071;28;20463;-84
2023/01/22 10:48:17;;;;;;;13.10;8.10;;;;;;;;;;5073087;28;20477;-83
2023/01/22 10:50:45;;;;;;;10.50;8.10;;;;;;;;;;5075359;28;20458;-84
2023/01/22 10:53:18;;;;;;;10.33;7.60;;;;;;;;;;5072736;28;20486;-84
2023/01/22 10:55:51;;;;;;;8.83;6.93;;;;;;;;;;5075372;28;20480;-84
2023/01/22 10:58:20;;;;;;;10.90;7.33;;;;;;;;;;5073551;28;20843;-84
2023/01/22 11:00:55;;;;;;;14.47;7.87;;;;;;;;;;5074480;28;20467;-83
2023/01/22 11:03:22;;;;;;;11.70;7.33;;;;;;;;;;5073654;28;20458;-84
2023/01/22 11:05:52;;;;;;;12.03;8.47;;;;;;;;;;5074423;28;20456;-83
2023/01/22 11:08:19;;;;;;;10.60;6.60;;;;;;;;;;5073315;28;20467;-83
2023/01/22 11:10:49;;;;;;;11.13;7.23;;;;;;;;;;5073874;28;20463;-84
2023/01/22 11:13:17;;;;;;;13.23;8.80;;;;;;;;;;5072244;28;20462;-84
2023/01/22 11:15:45;;;;;;;13.00;8.90;;;;;;;;;;5071648;28;20479;-84
2023/01/22 11:18:15;;;;;;;10.70;7.73;;;;;;;;;;5074698;28;20459;-84
2023/01/22 11:20:45;;;;;;;11.37;7.13;;;;;;;;;;5074222;28;20459;-84
2023/01/22 11:23:16;;;;;;;10.10;8.00;;;;;;;;;;5073084;28;20531;-83
2023/01/22 11:25:45;;;;;;;7.87;6.40;;;;;;;;;;5074461;28;20454;-85
2023/01/22 11:28:18;;;;;;;13.20;7.70;;;;;;;;;;5074412;28;20444;-83
2023/01/22 11:31:00;;;;;;;10.80;6.33;;;;;;;;;;5074308;28;20459;-84
2023/01/22 11:33:35;;;;;;;12.23;7.37;;;;;;;;;;5069490;28;20481;-84
2023/01/22 11:36:05;;;;;;;9.10;7.27;;;;;;;;;;5074010;28;20486;-84
2023/01/22 11:38:36;;;;;;;11.90;6.50;;;;;;;;;;5073121;28;20467;-83
2023/01/22 11:41:09;;;;;;;14.33;6.97;;;;;;;;;;5074167;28;20463;-84
2023/01/22 11:43:40;;;;;;;10.67;7.03;;;;;;;;;;5073499;28;20992;-83
2023/01/22 11:46:18;;;;;;;10.57;7.53;;;;;;;;;;5073612;28;20451;-84
2023/01/22 11:48:52;;;;;;;11.80;7.27;;;;;;;;;;5071477;28;20470;-84
2023/01/22 11:51:24;;;;;;;13.00;7.27;;;;;;;;;;5071815;28;20848;-83
2023/01/22 11:54:00;;;;;;;12.80;6.63;;;;;;;;;;5073555;28;20464;-83
2023/01/22 11:56:35;;;;;;;8.90;7.03;;;;;;;;;;5070644;28;20506;-84
2023/01/22 11:59:04;;;;;;;10.27;7.47;;;;;;;;;;5070834;28;20466;-85
2023/01/22 12:01:38;;;;;;;15.00;8.27;;;;;;;;;;5073065;28;20503;-83
2023/01/22 12:04:17;;;;;;;10.83;7.07;;;;;;;;;;5072449;28;20474;-83
2023/01/22 12:06:51;;;;;;;10.80;8.60;;;;;;;;;;5073120;28;20448;-83
2023/01/22 12:09:21;;;;;;;13.57;7.87;;;;;;;;;;5068455;28;20478;-83
2023/01/22 12:11:54;;;;;;;10.50;6.67;;;;;;;;;;5070387;28;20478;-84
2023/01/22 12:14:28;;;;;;;8.90;7.10;;;;;;;;;;5071295;28;20858;-83
2023/01/22 12:16:59;;;;;;;13.53;6.47;;;;;;;;;;5071029;28;20518;-83
2023/01/22 12:19:44;;;;;;;10.03;7.03;;;;;;;;;;5073478;28;21000;-84
2023/01/22 12:22:17;;;;;;;16.60;7.30;;;;;;;;;;5069097;28;20504;-84
2023/01/22 12:24:47;;;;;;;9.00;5.80;;;;;;;;;;5071134;28;20483;-84
2023/01/22 12:27:15;;;;;;;12.03;7.60;;;;;;;;;;5071187;28;20459;-84
2023/01/22 12:29:44;;;;;;;13.47;7.70;;;;;;;;;;5071997;28;20863;-84
2023/01/22 12:32:14;;;;;;;12.53;7.57;;;;;;;;;;5071108;28;20470;-83
2023/01/22 12:34:43;;;;;;;11.10;6.87;;;;;;;;;;5073086;28;20490;-83
2023/01/22 12:37:13;;;;;;;12.30;6.80;;;;;;;;;;5071899;28;21004;-83
2023/01/22 12:39:43;;;;;;;11.73;6.53;;;;;;;;;;5074258;28;20463;-84
2023/01/22 12:42:21;;;;;;;9.40;5.40;;;;;;;;;;5072829;28;20464;-84
2023/01/22 12:44:52;;;;;;;14.90;5.20;;;;;;;;;;5072799;28;20474;-84
2023/01/22 12:47:21;;;;;;;10.60;5.97;;;;;;;;;;5071620;28;20843;-84
2023/01/22 12:49:48;;;;;;;9.70;6.70;;;;;;;;;;5071090;28;20478;-84
2023/01/22 12:52:33;;;;;;;12.40;6.77;;;;;;;;;;5070301;28;20498;-84
2023/01/22 12:55:00;;;;;;;7.53;6.00;;;;;;;;;;5071000;28;20471;-83
2023/01/22 12:57:36;;;;;;;11.70;5.67;;;;;;;;;;5072888;28;20526;-84
2023/01/22 13:00:10;;;;;;;11.67;6.83;;;;;;;;;;5071698;28;20475;-84
2023/01/22 13:02:37;;;;;;;11.40;6.80;;;;;;;;;;5074866;28;20486;-85
2023/01/22 13:05:11;;;;;;;11.00;6.97;;;;;;;;;;5070798;28;20483;-84
2023/01/22 13:07:39;;;;;;;9.93;7.17;;;;;;;;;;5067408;28;20866;-84
2023/01/22 13:10:20;;;;;;;9.43;6.20;;;;;;;;;;5072568;28;20474;-84
2023/01/22 13:12:49;;;;;;;8.97;6.77;;;;;;;;;;5074270;28;21014;-83
2023/01/22 13:15:19;;;;;;;11.17;5.93;;;;;;;;;;5072141;28;20480;-83
2023/01/22 13:17:47;;;;;;;13.13;7.43;;;;;;;;;;5072480;28;20447;-83
2023/01/22 13:20:16;;;;;;;10.37;7.17;;;;;;;;;;5072127;28;20474;-83
2023/01/22 13:22:42;;;;;;;11.23;6.80;;;;;;;;;;5069859;28;20848;-84
2023/01/22 13:25:21;;;;;;;9.13;6.30;;;;;;;;;;5070223;28;20486;-83
2023/01/22 13:27:49;;;;;;;11.97;8.43;;;;;;;;;;5070426;28;20462;-83
2023/01/22 13:30:17;;;;;;;9.83;5.93;;;;;;;;;;5067715;28;20566;-84
2023/01/22 13:32:43;;;;;;;11.13;6.60;;;;;;;;;;5069989;28;20479;-83
2023/01/22 13:35:12;;;;;;;12.50;6.80;;;;;;;;;;5071884;28;20472;-83
2023/01/22 13:37:40;;;;;;;7.43;6.13;;;;;;;;;;5071757;28;20529;-83
2023/01/22 13:40:11;;;;;;;8.80;6.23;;;;;;;;;;5069086;28;20476;-83
2023/01/22 13:42:38;;;;;;;13.07;6.17;;;;;;;;;;5071794;28;20462;-84
2023/01/22 13:45:14;;;;;;;13.07;7.57;;;;;;;;;;5070595;28;21023;-83
2023/01/22 13:47:40;;;;;;;13.40;6.70;;;;;;;;;;5069335;28;20493;-83
2023/01/22 13:50:17;;;;;;;12.23;5.60;;;;;;;;;;5070396;28;20472;-83
2023/01/22 13:52:43;;;;;;;10.10;6.80;;;;;;;;;;5068729;28;20490;-85
2023/01/22 13:55:14;;;;;;;9.23;5.57;;;;;;;;;;5070687;28;21035;-83
2023/01/22 13:57:44;;;;;;;11.50;5.77;;;;;;;;;;5072199;28;20474;-83
2023/01/22 14:00:21;;;;;;;10.10;5.50;;;;;;;;;;5070254;28;20482;-83
2023/01/22 14:02:49;;;;;;;8.00;6.10;;;;;;;;;;5070880;28;20997;-83
2023/01/22 14:05:20;;;;;;;8.83;5.33;;;;;;;;;;5070769;28;20486;-83
2023/01/22 14:07:46;;;;;;;11.37;7.03;;;;;;;;;;5071690;28;20459;-83
2023/01/22 14:10:14;;;;;;;9.50;5.83;;;;;;;;;;5071463;28;20471;-83
2023/01/22 14:12:41;;;;;;;8.83;5.10;;;;;;;;;;5067973;28;20484;-83
2023/01/22 14:15:15;;;;;;;10.37;4.80;;;;;;;;;;5069204;28;20484;-83
2023/01/22 14:17:41;;;;;;;8.80;5.37;;;;;;;;;;5071498;28;20889;-83
2023/01/22 14:20:10;;;;;;;9.50;6.00;;;;;;;;;;5069163;28;20475;-83
2023/01/22 14:22:36;;;;;;;7.60;5.00;;;;;;;;;;5069470;28;20489;-83
2023/01/22 14:25:03;;;;;;;11.00;5.43;;;;;;;;;;5070332;28;20474;-83
2023/01/22 14:27:38;;;;;;;13.20;5.33;;;;;;;;;;5072609;28;20462;-83
2023/01/22 14:30:06;;;;;;;14.23;6.40;;;;;;;;;;5069741;28;21029;-83
2023/01/22 14:32:32;;;;;;;11.80;5.20;;;;;;;;;;5068109;28;20471;-83
2023/01/22 14:34:58;;;;;;;15.83;5.90;;;;;;;;;;5071396;28;20471;-83
2023/01/22 14:37:26;;;;;;;15.97;5.83;;;;;;;;;;5071597;28;20482;-83
2023/01/22 14:39:52;;;;;;;9.13;5.30;;;;;;;;;;5073517;28;20970;-83
2023/01/22 14:42:19;;;;;;;9.57;5.30;;;;;;;;;;5071062;28;20490;-84
2023/01/22 14:44:45;;;;;;;7.77;5.90;;;;;;;;;;5073183;28;20999;-83
2023/01/22 14:47:11;;;;;;;9.50;5.10;;;;;;;;;;5073414;28;20470;-83